WAPP/AMQ METAR and TAF weather

Enter ICAO airport designator
Station Type Date Time Source
WAPP METAR 2018/12/11 22:30 UTC NOAA

WAPP 112230Z 02004KT 340V060 9999 SCT020 28/25 Q1009 NOSIG


Station Type Date Time Source
WAPP Decoded METAR 2018/12/11 22:30 UTC NOAA

Ambon / Pattimura, Indonesia (WAPP) 03-42S 128-05E 12M
Dec 11, 2018 - 05:30 PM EST / 2018.12.11 2230 UTC
Wind: from the NNE (020 degrees) at 5 MPH (4 KT) (direction variable):0
Visibility: greater than 7 mile(s):0
Sky conditions: partly cloudy
Temperature: 82 F (28 C)
Dew Point: 77 F (25 C)
Relative Humidity: 83%
Pressure (altimeter): 29.80 in. Hg (1009 hPa)
ob: WAPP 112230Z 02004KT 340V060 9999 SCT020 28/25 Q1009 NOSIG
cycle: 22

Station Type Date Time Source
WAPP TAF 2015/06/30 00:57 UTC NOAA

TAF WAPP 302300Z 0100/0124 34006KT 9999 SCT018
TEMPO 0101/0104 7000 -RA BKN017
BECMG 0105/0107 21006KT
BECMG 0109/0111 32006KT


Example: see airport list